sensor_id;sensor_type;location;lat;lon;timestamp;P1;durP1;ratioP1;P2;durP2;ratioP2
20067;SDS011;10194;50.824;7.134;2022-08-21T00:02:16;23.10;;;8.27;;
20067;SDS011;10194;50.824;7.134;2022-08-21T00:04:46;20.63;;;9.38;;
20067;SDS011;10194;50.824;7.134;2022-08-21T00:07:13;20.17;;;8.95;;
20067;SDS011;10194;50.824;7.134;2022-08-21T00:09:39;23.20;;;8.88;;
20067;SDS011;10194;50.824;7.134;2022-08-21T00:12:05;26.35;;;9.13;;
20067;SDS011;10194;50.824;7.134;2022-08-21T00:14:32;23.83;;;9.10;;
20067;SDS011;10194;50.824;7.134;2022-08-21T00:16:59;20.10;;;8.43;;
20067;SDS011;10194;50.824;7.134;2022-08-21T00:19:26;20.25;;;9.75;;
20067;SDS011;10194;50.824;7.134;2022-08-21T00:21:53;20.55;;;8.85;;
20067;SDS011;10194;50.824;7.134;2022-08-21T00:24:20;15.65;;;8.32;;
20067;SDS011;10194;50.824;7.134;2022-08-21T00:26:47;19.45;;;8.77;;
20067;SDS011;10194;50.824;7.134;2022-08-21T00:29:14;22.70;;;8.80;;
20067;SDS011;10194;50.824;7.134;2022-08-21T00:31:40;19.67;;;8.73;;
20067;SDS011;10194;50.824;7.134;2022-08-21T00:34:08;17.42;;;8.27;;
20067;SDS011;10194;50.824;7.134;2022-08-21T00:36:34;15.23;;;7.90;;
20067;SDS011;10194;50.824;7.134;2022-08-21T00:39:01;20.20;;;7.75;;
20067;SDS011;10194;50.824;7.134;2022-08-21T00:41:29;17.02;;;8.50;;
20067;SDS011;10194;50.824;7.134;2022-08-21T00:43:56;17.88;;;8.50;;
20067;SDS011;10194;50.824;7.134;2022-08-21T00:46:22;18.25;;;8.55;;
20067;SDS011;10194;50.824;7.134;2022-08-21T00:48:48;15.75;;;8.27;;
20067;SDS011;10194;50.824;7.134;2022-08-21T00:51:15;17.42;;;8.55;;
20067;SDS011;10194;50.824;7.134;2022-08-21T00:53:51;13.50;;;7.57;;
20067;SDS011;10194;50.824;7.134;2022-08-21T00:56:21;12.88;;;7.72;;
20067;SDS011;10194;50.824;7.134;2022-08-21T00:58:49;15.95;;;7.20;;
20067;SDS011;10194;50.824;7.134;2022-08-21T01:01:18;14.43;;;7.38;;
20067;SDS011;10194;50.824;7.134;2022-08-21T01:03:45;11.52;;;6.68;;
20067;SDS011;10194;50.824;7.134;2022-08-21T01:06:12;12.88;;;7.22;;
20067;SDS011;10194;50.824;7.134;2022-08-21T01:08:38;12.85;;;6.75;;
20067;SDS011;10194;50.824;7.134;2022-08-21T01:11:04;11.88;;;6.80;;
20067;SDS011;10194;50.824;7.134;2022-08-21T01:13:32;10.77;;;6.72;;
20067;SDS011;10194;50.824;7.134;2022-08-21T01:16:02;10.30;;;6.95;;
20067;SDS011;10194;50.824;7.134;2022-08-21T01:18:30;12.55;;;6.70;;
20067;SDS011;10194;50.824;7.134;2022-08-21T01:20:59;12.35;;;6.70;;
20067;SDS011;10194;50.824;7.134;2022-08-21T01:23:32;10.93;;;6.38;;
20067;SDS011;10194;50.824;7.134;2022-08-21T01:25:59;13.07;;;6.78;;
20067;SDS011;10194;50.824;7.134;2022-08-21T01:28:25;12.02;;;6.90;;
20067;SDS011;10194;50.824;7.134;2022-08-21T01:30:52;10.52;;;6.82;;
20067;SDS011;10194;50.824;7.134;2022-08-21T01:33:20;13.75;;;7.00;;
20067;SDS011;10194;50.824;7.134;2022-08-21T01:35:49;12.40;;;7.53;;
20067;SDS011;10194;50.824;7.134;2022-08-21T01:38:15;11.50;;;7.50;;
20067;SDS011;10194;50.824;7.134;2022-08-21T01:40:42;14.90;;;7.15;;
20067;SDS011;10194;50.824;7.134;2022-08-21T01:43:08;11.27;;;6.65;;
20067;SDS011;10194;50.824;7.134;2022-08-21T01:45:35;17.77;;;7.93;;
20067;SDS011;10194;50.824;7.134;2022-08-21T01:48:00;14.35;;;7.60;;
20067;SDS011;10194;50.824;7.134;2022-08-21T01:50:27;16.15;;;8.18;;
20067;SDS011;10194;50.824;7.134;2022-08-21T01:52:53;14.88;;;7.78;;
20067;SDS011;10194;50.824;7.134;2022-08-21T01:55:20;15.27;;;7.70;;
20067;SDS011;10194;50.824;7.134;2022-08-21T01:57:47;14.15;;;8.15;;
20067;SDS011;10194;50.824;7.134;2022-08-21T02:00:14;12.70;;;7.90;;
20067;SDS011;10194;50.824;7.134;2022-08-21T02:02:44;13.38;;;8.18;;
20067;SDS011;10194;50.824;7.134;2022-08-21T02:05:10;15.90;;;8.02;;
20067;SDS011;10194;50.824;7.134;2022-08-21T02:07:39;11.63;;;7.47;;
20067;SDS011;10194;50.824;7.134;2022-08-21T02:10:11;10.45;;;6.80;;
20067;SDS011;10194;50.824;7.134;2022-08-21T02:12:41;14.73;;;6.65;;
20067;SDS011;10194;50.824;7.134;2022-08-21T02:15:07;17.55;;;7.72;;
20067;SDS011;10194;50.824;7.134;2022-08-21T02:17:38;14.85;;;8.25;;
20067;SDS011;10194;50.824;7.134;2022-08-21T02:20:18;14.18;;;7.55;;
20067;SDS011;10194;50.824;7.134;2022-08-21T02:22:48;16.80;;;7.28;;
20067;SDS011;10194;50.824;7.134;2022-08-21T02:25:15;14.18;;;7.00;;
20067;SDS011;10194;50.824;7.134;2022-08-21T02:27:43;13.05;;;7.57;;
20067;SDS011;10194;50.824;7.134;2022-08-21T02:30:29;13.15;;;7.40;;
20067;SDS011;10194;50.824;7.134;2022-08-21T02:32:59;14.85;;;7.75;;
20067;SDS011;10194;50.824;7.134;2022-08-21T02:35:25;9.75;;;7.45;;
20067;SDS011;10194;50.824;7.134;2022-08-21T02:37:57;13.07;;;7.78;;
20067;SDS011;10194;50.824;7.134;2022-08-21T02:40:27;14.13;;;7.65;;
20067;SDS011;10194;50.824;7.134;2022-08-21T02:42:56;13.18;;;7.65;;
20067;SDS011;10194;50.824;7.134;2022-08-21T02:45:23;12.93;;;7.50;;
20067;SDS011;10194;50.824;7.134;2022-08-21T02:47:54;13.13;;;8.10;;
20067;SDS011;10194;50.824;7.134;2022-08-21T02:50:32;11.27;;;7.07;;
20067;SDS011;10194;50.824;7.134;2022-08-21T02:53:01;14.70;;;8.05;;
20067;SDS011;10194;50.824;7.134;2022-08-21T02:55:29;12.15;;;7.70;;
20067;SDS011;10194;50.824;7.134;2022-08-21T02:57:58;14.35;;;7.60;;
20067;SDS011;10194;50.824;7.134;2022-08-21T03:00:25;12.55;;;7.97;;
20067;SDS011;10194;50.824;7.134;2022-08-21T03:02:54;11.38;;;7.30;;
20067;SDS011;10194;50.824;7.134;2022-08-21T03:05:21;14.00;;;7.75;;
20067;SDS011;10194;50.824;7.134;2022-08-21T03:07:49;10.77;;;6.97;;
20067;SDS011;10194;50.824;7.134;2022-08-21T03:10:15;13.82;;;8.13;;
20067;SDS011;10194;50.824;7.134;2022-08-21T03:12:41;12.00;;;7.88;;
20067;SDS011;10194;50.824;7.134;2022-08-21T03:15:09;13.20;;;8.15;;
20067;SDS011;10194;50.824;7.134;2022-08-21T03:17:37;15.82;;;7.97;;
20067;SDS011;10194;50.824;7.134;2022-08-21T03:20:04;14.25;;;7.70;;
20067;SDS011;10194;50.824;7.134;2022-08-21T03:22:31;16.85;;;8.27;;
20067;SDS011;10194;50.824;7.134;2022-08-21T03:24:57;14.68;;;8.90;;
20067;SDS011;10194;50.824;7.134;2022-08-21T03:27:24;16.10;;;7.75;;
20067;SDS011;10194;50.824;7.134;2022-08-21T03:29:52;12.98;;;8.05;;
20067;SDS011;10194;50.824;7.134;2022-08-21T03:32:18;14.85;;;7.80;;
20067;SDS011;10194;50.824;7.134;2022-08-21T03:34:45;13.73;;;8.45;;
20067;SDS011;10194;50.824;7.134;2022-08-21T03:37:12;12.00;;;7.65;;
20067;SDS011;10194;50.824;7.134;2022-08-21T03:39:38;14.77;;;8.35;;
20067;SDS011;10194;50.824;7.134;2022-08-21T03:42:06;12.70;;;7.43;;
20067;SDS011;10194;50.824;7.134;2022-08-21T03:44:32;13.98;;;7.85;;
20067;SDS011;10194;50.824;7.134;2022-08-21T03:46:58;15.52;;;8.32;;
20067;SDS011;10194;50.824;7.134;2022-08-21T03:49:24;10.57;;;7.32;;
20067;SDS011;10194;50.824;7.134;2022-08-21T03:51:51;12.95;;;8.20;;
20067;SDS011;10194;50.824;7.134;2022-08-21T03:54:17;12.75;;;7.72;;
20067;SDS011;10194;50.824;7.134;2022-08-21T03:56:43;11.30;;;7.55;;
20067;SDS011;10194;50.824;7.134;2022-08-21T03:59:09;15.73;;;8.50;;
20067;SDS011;10194;50.824;7.134;2022-08-21T04:01:35;12.68;;;7.95;;
20067;SDS011;10194;50.824;7.134;2022-08-21T04:04:01;11.45;;;7.57;;
20067;SDS011;10194;50.824;7.134;2022-08-21T04:06:28;13.90;;;8.40;;
20067;SDS011;10194;50.824;7.134;2022-08-21T04:08:54;12.93;;;7.60;;
20067;SDS011;10194;50.824;7.134;2022-08-21T04:11:20;15.63;;;7.93;;
20067;SDS011;10194;50.824;7.134;2022-08-21T04:13:47;12.38;;;7.35;;
20067;SDS011;10194;50.824;7.134;2022-08-21T04:16:14;12.25;;;7.43;;
20067;SDS011;10194;50.824;7.134;2022-08-21T04:18:40;9.90;;;7.50;;
20067;SDS011;10194;50.824;7.134;2022-08-21T04:21:07;13.98;;;8.30;;
20067;SDS011;10194;50.824;7.134;2022-08-21T04:23:35;11.70;;;7.72;;
20067;SDS011;10194;50.824;7.134;2022-08-21T04:26:02;15.38;;;8.15;;
20067;SDS011;10194;50.824;7.134;2022-08-21T04:28:28;13.25;;;7.75;;
20067;SDS011;10194;50.824;7.134;2022-08-21T04:30:54;13.90;;;8.23;;
20067;SDS011;10194;50.824;7.134;2022-08-21T04:33:21;14.35;;;8.18;;
20067;SDS011;10194;50.824;7.134;2022-08-21T04:35:48;11.35;;;7.63;;
20067;SDS011;10194;50.824;7.134;2022-08-21T04:38:15;14.45;;;8.13;;
20067;SDS011;10194;50.824;7.134;2022-08-21T04:40:41;13.30;;;7.68;;
20067;SDS011;10194;50.824;7.134;2022-08-21T04:43:08;12.55;;;7.70;;
20067;SDS011;10194;50.824;7.134;2022-08-21T04:45:36;14.75;;;8.63;;
20067;SDS011;10194;50.824;7.134;2022-08-21T04:48:08;15.07;;;8.38;;
20067;SDS011;10194;50.824;7.134;2022-08-21T04:53:10;12.80;;;8.48;;
20067;SDS011;10194;50.824;7.134;2022-08-21T04:55:41;15.65;;;8.57;;
20067;SDS011;10194;50.824;7.134;2022-08-21T04:58:08;13.95;;;8.00;;
20067;SDS011;10194;50.824;7.134;2022-08-21T05:00:38;14.73;;;8.20;;
20067;SDS011;10194;50.824;7.134;2022-08-21T05:03:04;14.63;;;7.93;;
20067;SDS011;10194;50.824;7.134;2022-08-21T05:05:32;12.77;;;7.82;;
20067;SDS011;10194;50.824;7.134;2022-08-21T05:07:58;12.35;;;7.90;;
20067;SDS011;10194;50.824;7.134;2022-08-21T05:10:26;15.10;;;8.30;;
20067;SDS011;10194;50.824;7.134;2022-08-21T05:12:53;12.93;;;8.10;;
20067;SDS011;10194;50.824;7.134;2022-08-21T05:15:20;15.10;;;8.82;;
20067;SDS011;10194;50.824;7.134;2022-08-21T05:17:46;11.85;;;8.07;;
20067;SDS011;10194;50.824;7.134;2022-08-21T05:20:13;13.50;;;8.07;;
20067;SDS011;10194;50.824;7.134;2022-08-21T05:22:39;15.57;;;8.65;;
20067;SDS011;10194;50.824;7.134;2022-08-21T05:25:06;12.15;;;8.20;;
20067;SDS011;10194;50.824;7.134;2022-08-21T05:27:33;16.02;;;8.90;;
20067;SDS011;10194;50.824;7.134;2022-08-21T05:30:00;15.93;;;8.40;;
20067;SDS011;10194;50.824;7.134;2022-08-21T05:32:26;13.77;;;8.00;;
20067;SDS011;10194;50.824;7.134;2022-08-21T05:34:53;13.07;;;8.50;;
20067;SDS011;10194;50.824;7.134;2022-08-21T05:37:19;15.75;;;8.32;;
20067;SDS011;10194;50.824;7.134;2022-08-21T05:39:45;13.27;;;8.15;;
20067;SDS011;10194;50.824;7.134;2022-08-21T05:42:11;12.15;;;8.25;;
20067;SDS011;10194;50.824;7.134;2022-08-21T05:44:37;12.98;;;8.10;;
20067;SDS011;10194;50.824;7.134;2022-08-21T05:47:07;15.23;;;9.35;;
20067;SDS011;10194;50.824;7.134;2022-08-21T05:49:35;13.90;;;8.70;;
20067;SDS011;10194;50.824;7.134;2022-08-21T05:52:02;12.50;;;7.78;;
20067;SDS011;10194;50.824;7.134;2022-08-21T05:54:29;12.20;;;8.18;;
20067;SDS011;10194;50.824;7.134;2022-08-21T05:56:55;13.77;;;8.60;;
20067;SDS011;10194;50.824;7.134;2022-08-21T05:59:22;15.80;;;8.82;;
20067;SDS011;10194;50.824;7.134;2022-08-21T06:01:48;12.05;;;8.15;;
20067;SDS011;10194;50.824;7.134;2022-08-21T06:04:15;14.38;;;8.50;;
20067;SDS011;10194;50.824;7.134;2022-08-21T06:06:41;13.23;;;8.77;;
20067;SDS011;10194;50.824;7.134;2022-08-21T06:09:07;14.43;;;9.07;;
20067;SDS011;10194;50.824;7.134;2022-08-21T06:11:33;13.27;;;8.18;;
20067;SDS011;10194;50.824;7.134;2022-08-21T06:13:59;12.43;;;8.52;;
20067;SDS011;10194;50.824;7.134;2022-08-21T06:16:25;14.35;;;9.05;;
20067;SDS011;10194;50.824;7.134;2022-08-21T06:18:53;11.95;;;8.75;;
20067;SDS011;10194;50.824;7.134;2022-08-21T06:21:18;15.60;;;9.07;;
20067;SDS011;10194;50.824;7.134;2022-08-21T06:23:44;11.98;;;8.52;;
20067;SDS011;10194;50.824;7.134;2022-08-21T06:26:11;11.85;;;7.70;;
20067;SDS011;10194;50.824;7.134;2022-08-21T06:28:39;11.77;;;7.22;;
20067;SDS011;10194;50.824;7.134;2022-08-21T06:33:46;11.50;;;7.13;;
20067;SDS011;10194;50.824;7.134;2022-08-21T06:36:13;10.90;;;7.22;;
20067;SDS011;10194;50.824;7.134;2022-08-21T06:38:39;11.75;;;7.53;;
20067;SDS011;10194;50.824;7.134;2022-08-21T06:41:06;10.02;;;6.70;;
20067;SDS011;10194;50.824;7.134;2022-08-21T06:43:32;10.27;;;7.07;;
20067;SDS011;10194;50.824;7.134;2022-08-21T06:45:58;10.23;;;6.50;;
20067;SDS011;10194;50.824;7.134;2022-08-21T06:48:24;10.73;;;7.15;;
20067;SDS011;10194;50.824;7.134;2022-08-21T06:50:50;10.40;;;6.82;;
20067;SDS011;10194;50.824;7.134;2022-08-21T06:53:17;10.90;;;6.55;;
20067;SDS011;10194;50.824;7.134;2022-08-21T06:55:46;9.80;;;6.10;;
20067;SDS011;10194;50.824;7.134;2022-08-21T06:58:13;9.65;;;6.80;;
20067;SDS011;10194;50.824;7.134;2022-08-21T07:00:40;10.73;;;6.97;;
20067;SDS011;10194;50.824;7.134;2022-08-21T07:03:19;10.35;;;6.55;;
20067;SDS011;10194;50.824;7.134;2022-08-21T07:05:47;7.82;;;6.28;;
20067;SDS011;10194;50.824;7.134;2022-08-21T07:08:13;9.52;;;6.03;;
20067;SDS011;10194;50.824;7.134;2022-08-21T07:10:39;10.35;;;6.30;;
20067;SDS011;10194;50.824;7.134;2022-08-21T07:13:05;8.32;;;6.07;;
20067;SDS011;10194;50.824;7.134;2022-08-21T07:15:31;9.80;;;6.47;;
20067;SDS011;10194;50.824;7.134;2022-08-21T07:17:57;9.52;;;5.63;;
20067;SDS011;10194;50.824;7.134;2022-08-21T07:20:24;7.90;;;6.18;;
20067;SDS011;10194;50.824;7.134;2022-08-21T07:22:51;12.27;;;6.43;;
20067;SDS011;10194;50.824;7.134;2022-08-21T07:25:17;11.18;;;6.10;;
20067;SDS011;10194;50.824;7.134;2022-08-21T07:27:42;14.07;;;6.53;;
20067;SDS011;10194;50.824;7.134;2022-08-21T07:30:08;7.80;;;5.30;;
20067;SDS011;10194;50.824;7.134;2022-08-21T07:32:35;12.27;;;6.10;;
20067;SDS011;10194;50.824;7.134;2022-08-21T07:35:01;8.90;;;5.53;;
20067;SDS011;10194;50.824;7.134;2022-08-21T07:37:27;11.75;;;6.38;;
20067;SDS011;10194;50.824;7.134;2022-08-21T07:39:53;9.13;;;5.13;;
20067;SDS011;10194;50.824;7.134;2022-08-21T07:42:19;7.50;;;5.35;;
20067;SDS011;10194;50.824;7.134;2022-08-21T07:44:45;9.13;;;5.43;;
20067;SDS011;10194;50.824;7.134;2022-08-21T07:47:10;9.52;;;5.35;;
20067;SDS011;10194;50.824;7.134;2022-08-21T07:49:36;7.40;;;5.45;;
20067;SDS011;10194;50.824;7.134;2022-08-21T07:52:02;9.05;;;5.18;;
20067;SDS011;10194;50.824;7.134;2022-08-21T07:54:28;10.63;;;5.50;;
20067;SDS011;10194;50.824;7.134;2022-08-21T07:56:54;10.10;;;5.18;;
20067;SDS011;10194;50.824;7.134;2022-08-21T07:59:20;10.80;;;5.13;;
20067;SDS011;10194;50.824;7.134;2022-08-21T08:01:46;10.63;;;4.88;;
20067;SDS011;10194;50.824;7.134;2022-08-21T08:04:11;7.30;;;4.55;;
20067;SDS011;10194;50.824;7.134;2022-08-21T08:06:37;10.13;;;4.80;;
20067;SDS011;10194;50.824;7.134;2022-08-21T08:09:03;8.75;;;5.00;;
20067;SDS011;10194;50.824;7.134;2022-08-21T08:11:29;7.90;;;4.93;;
20067;SDS011;10194;50.824;7.134;2022-08-21T08:13:55;8.93;;;4.43;;
20067;SDS011;10194;50.824;7.134;2022-08-21T08:16:23;15.52;;;5.70;;
20067;SDS011;10194;50.824;7.134;2022-08-21T08:18:48;7.72;;;4.65;;
20067;SDS011;10194;50.824;7.134;2022-08-21T08:21:16;7.72;;;4.00;;
20067;SDS011;10194;50.824;7.134;2022-08-21T08:23:43;9.63;;;4.22;;
20067;SDS011;10194;50.824;7.134;2022-08-21T08:26:10;9.80;;;3.95;;
20067;SDS011;10194;50.824;7.134;2022-08-21T08:28:36;11.55;;;4.70;;
20067;SDS011;10194;50.824;7.134;2022-08-21T08:31:02;7.18;;;3.67;;
20067;SDS011;10194;50.824;7.134;2022-08-21T08:33:28;7.32;;;3.90;;
20067;SDS011;10194;50.824;7.134;2022-08-21T08:35:55;12.45;;;4.28;;
20067;SDS011;10194;50.824;7.134;2022-08-21T08:38:22;7.30;;;4.22;;
20067;SDS011;10194;50.824;7.134;2022-08-21T08:43:38;8.27;;;4.38;;
20067;SDS011;10194;50.824;7.134;2022-08-21T08:46:10;8.68;;;4.28;;
20067;SDS011;10194;50.824;7.134;2022-08-21T08:48:54;9.50;;;4.38;;
20067;SDS011;10194;50.824;7.134;2022-08-21T08:51:48;10.27;;;4.18;;
20067;SDS011;10194;50.824;7.134;2022-08-21T08:54:30;9.30;;;4.60;;
20067;SDS011;10194;50.824;7.134;2022-08-21T08:57:22;7.05;;;3.88;;
20067;SDS011;10194;50.824;7.134;2022-08-21T08:59:53;6.47;;;4.25;;
20067;SDS011;10194;50.824;7.134;2022-08-21T09:02:23;8.55;;;3.83;;
20067;SDS011;10194;50.824;7.134;2022-08-21T09:04:52;7.22;;;3.45;;
20067;SDS011;10194;50.824;7.134;2022-08-21T09:10:29;6.85;;;3.75;;
20067;SDS011;10194;50.824;7.134;2022-08-21T09:13:19;6.55;;;3.38;;
20067;SDS011;10194;50.824;7.134;2022-08-21T09:19:07;7.70;;;3.28;;
20067;SDS011;10194;50.824;7.134;2022-08-21T09:22:19;6.68;;;3.17;;
20067;SDS011;10194;50.824;7.134;2022-08-21T09:27:49;6.53;;;3.35;;
20067;SDS011;10194;50.824;7.134;2022-08-21T09:30:16;7.30;;;3.75;;
20067;SDS011;10194;50.824;7.134;2022-08-21T09:32:44;4.93;;;3.22;;
20067;SDS011;10194;50.824;7.134;2022-08-21T09:35:13;6.95;;;3.55;;
20067;SDS011;10194;50.824;7.134;2022-08-21T09:37:58;7.93;;;2.92;;
20067;SDS011;10194;50.824;7.134;2022-08-21T09:45:37;7.53;;;3.60;;
20067;SDS011;10194;50.824;7.134;2022-08-21T09:50:50;6.18;;;2.78;;
20067;SDS011;10194;50.824;7.134;2022-08-21T09:53:24;6.95;;;2.60;;
20067;SDS011;10194;50.824;7.134;2022-08-21T09:59:01;4.88;;;2.35;;
20067;SDS011;10194;50.824;7.134;2022-08-21T10:01:57;8.35;;;2.88;;
20067;SDS011;10194;50.824;7.134;2022-08-21T10:04:28;5.72;;;2.65;;
20067;SDS011;10194;50.824;7.134;2022-08-21T10:07:12;6.65;;;3.08;;
20067;SDS011;10194;50.824;7.134;2022-08-21T10:09:40;5.88;;;2.72;;
20067;SDS011;10194;50.824;7.134;2022-08-21T10:14:54;5.60;;;2.60;;
20067;SDS011;10194;50.824;7.134;2022-08-21T10:20:30;3.92;;;1.85;;
20067;SDS011;10194;50.824;7.134;2022-08-21T10:26:26;6.93;;;2.33;;
20067;SDS011;10194;50.824;7.134;2022-08-21T10:29:20;4.05;;;2.10;;
20067;SDS011;10194;50.824;7.134;2022-08-21T10:37:26;3.92;;;1.98;;
20067;SDS011;10194;50.824;7.134;2022-08-21T10:47:09;8.32;;;2.30;;
20067;SDS011;10194;50.824;7.134;2022-08-21T10:56:05;5.95;;;2.53;;
20067;SDS011;10194;50.824;7.134;2022-08-21T10:58:28;6.78;;;2.20;;
20067;SDS011;10194;50.824;7.134;2022-08-21T11:01:00;5.20;;;2.42;;
20067;SDS011;10194;50.824;7.134;2022-08-21T11:06:37;6.43;;;2.00;;
20067;SDS011;10194;50.824;7.134;2022-08-21T11:09:11;6.88;;;2.10;;
20067;SDS011;10194;50.824;7.134;2022-08-21T11:17:49;4.63;;;2.33;;
20067;SDS011;10194;50.824;7.134;2022-08-21T11:20:40;5.72;;;2.00;;
20067;SDS011;10194;50.824;7.134;2022-08-21T11:23:23;6.40;;;1.90;;
20067;SDS011;10194;50.824;7.134;2022-08-21T11:26:00;6.93;;;2.35;;
20067;SDS011;10194;50.824;7.134;2022-08-21T11:28:48;2.85;;;1.90;;
20067;SDS011;10194;50.824;7.134;2022-08-21T11:31:26;4.72;;;2.00;;
20067;SDS011;10194;50.824;7.134;2022-08-21T11:34:30;3.88;;;2.00;;
20067;SDS011;10194;50.824;7.134;2022-08-21T11:43:19;3.30;;;1.90;;
20067;SDS011;10194;50.824;7.134;2022-08-21T11:49:11;7.15;;;2.10;;
20067;SDS011;10194;50.824;7.134;2022-08-21T11:54:33;3.95;;;1.75;;
20067;SDS011;10194;50.824;7.134;2022-08-21T11:57:40;5.28;;;2.03;;
20067;SDS011;10194;50.824;7.134;2022-08-21T12:00:25;4.47;;;1.85;;
20067;SDS011;10194;50.824;7.134;2022-08-21T12:03:07;4.72;;;1.85;;
20067;SDS011;10194;50.824;7.134;2022-08-21T12:06:15;2.95;;;1.85;;
20067;SDS011;10194;50.824;7.134;2022-08-21T12:08:42;3.97;;;1.88;;
20067;SDS011;10194;50.824;7.134;2022-08-21T12:16:28;5.32;;;2.17;;
20067;SDS011;10194;50.824;7.134;2022-08-21T12:19:07;5.70;;;2.53;;
20067;SDS011;10194;50.824;7.134;2022-08-21T12:21:52;5.00;;;2.25;;
20067;SDS011;10194;50.824;7.134;2022-08-21T12:24:41;4.95;;;2.20;;
20067;SDS011;10194;50.824;7.134;2022-08-21T12:29:48;3.85;;;1.60;;
20067;SDS011;10194;50.824;7.134;2022-08-21T12:32:24;3.63;;;1.70;;
20067;SDS011;10194;50.824;7.134;2022-08-21T12:35:16;3.13;;;1.75;;
20067;SDS011;10194;50.824;7.134;2022-08-21T12:37:47;3.78;;;1.67;;
20067;SDS011;10194;50.824;7.134;2022-08-21T12:40:43;3.38;;;1.70;;
20067;SDS011;10194;50.824;7.134;2022-08-21T12:43:33;4.03;;;1.65;;
20067;SDS011;10194;50.824;7.134;2022-08-21T12:46:04;3.97;;;1.70;;
20067;SDS011;10194;50.824;7.134;2022-08-21T12:48:33;5.80;;;1.80;;
20067;SDS011;10194;50.824;7.134;2022-08-21T12:53:41;2.63;;;1.23;;
20067;SDS011;10194;50.824;7.134;2022-08-21T12:56:22;3.13;;;1.50;;
20067;SDS011;10194;50.824;7.134;2022-08-21T12:58:55;3.83;;;1.60;;
20067;SDS011;10194;50.824;7.134;2022-08-21T13:01:37;2.60;;;1.55;;
20067;SDS011;10194;50.824;7.134;2022-08-21T13:04:13;3.38;;;1.92;;
20067;SDS011;10194;50.824;7.134;2022-08-21T13:06:46;4.72;;;1.63;;
20067;SDS011;10194;50.824;7.134;2022-08-21T13:09:19;3.58;;;1.48;;
20067;SDS011;10194;50.824;7.134;2022-08-21T13:11:50;5.50;;;1.90;;
20067;SDS011;10194;50.824;7.134;2022-08-21T13:14:18;4.32;;;1.80;;
20067;SDS011;10194;50.824;7.134;2022-08-21T13:17:00;3.55;;;1.75;;
20067;SDS011;10194;50.824;7.134;2022-08-21T13:19:29;3.80;;;1.60;;
20067;SDS011;10194;50.824;7.134;2022-08-21T13:21:59;4.25;;;2.00;;
20067;SDS011;10194;50.824;7.134;2022-08-21T13:24:30;2.15;;;1.40;;
20067;SDS011;10194;50.824;7.134;2022-08-21T13:27:00;5.07;;;1.60;;
20067;SDS011;10194;50.824;7.134;2022-08-21T13:29:28;3.17;;;1.58;;
20067;SDS011;10194;50.824;7.134;2022-08-21T13:32:03;4.25;;;1.83;;
20067;SDS011;10194;50.824;7.134;2022-08-21T13:34:36;4.28;;;1.30;;
20067;SDS011;10194;50.824;7.134;2022-08-21T13:37:07;2.42;;;1.20;;
20067;SDS011;10194;50.824;7.134;2022-08-21T13:39:36;3.85;;;1.90;;
20067;SDS011;10194;50.824;7.134;2022-08-21T13:42:04;6.32;;;1.52;;
20067;SDS011;10194;50.824;7.134;2022-08-21T13:44:39;4.75;;;1.67;;
20067;SDS011;10194;50.824;7.134;2022-08-21T13:47:09;3.72;;;1.77;;
20067;SDS011;10194;50.824;7.134;2022-08-21T13:49:47;2.70;;;1.42;;
20067;SDS011;10194;50.824;7.134;2022-08-21T13:52:21;3.90;;;1.60;;
20067;SDS011;10194;50.824;7.134;2022-08-21T13:55:00;4.95;;;1.60;;
20067;SDS011;10194;50.824;7.134;2022-08-21T13:57:37;4.90;;;1.95;;
20067;SDS011;10194;50.824;7.134;2022-08-21T14:00:43;5.78;;;1.92;;
20067;SDS011;10194;50.824;7.134;2022-08-21T14:03:02;3.35;;;1.77;;
20067;SDS011;10194;50.824;7.134;2022-08-21T14:05:33;3.45;;;1.70;;
20067;SDS011;10194;50.824;7.134;2022-08-21T14:08:07;3.58;;;1.60;;
20067;SDS011;10194;50.824;7.134;2022-08-21T14:10:42;2.90;;;1.45;;
20067;SDS011;10194;50.824;7.134;2022-08-21T14:13:26;2.85;;;1.38;;
20067;SDS011;10194;50.824;7.134;2022-08-21T14:16:03;4.03;;;1.52;;
20067;SDS011;10194;50.824;7.134;2022-08-21T14:18:43;7.40;;;2.03;;
20067;SDS011;10194;50.824;7.134;2022-08-21T14:21:12;4.30;;;1.60;;
20067;SDS011;10194;50.824;7.134;2022-08-21T14:23:39;5.70;;;2.05;;
20067;SDS011;10194;50.824;7.134;2022-08-21T14:26:06;3.83;;;1.40;;
20067;SDS011;10194;50.824;7.134;2022-08-21T14:28:34;4.05;;;1.70;;
20067;SDS011;10194;50.824;7.134;2022-08-21T14:31:16;2.95;;;1.73;;
20067;SDS011;10194;50.824;7.134;2022-08-21T14:33:44;3.40;;;1.70;;
20067;SDS011;10194;50.824;7.134;2022-08-21T14:36:10;2.88;;;1.60;;
20067;SDS011;10194;50.824;7.134;2022-08-21T14:38:38;5.28;;;1.73;;
20067;SDS011;10194;50.824;7.134;2022-08-21T14:43:43;3.13;;;1.40;;
20067;SDS011;10194;50.824;7.134;2022-08-21T14:46:11;2.88;;;1.60;;
20067;SDS011;10194;50.824;7.134;2022-08-21T14:48:38;3.28;;;1.67;;
20067;SDS011;10194;50.824;7.134;2022-08-21T14:51:04;3.20;;;1.70;;
20067;SDS011;10194;50.824;7.134;2022-08-21T14:53:31;2.78;;;1.85;;
20067;SDS011;10194;50.824;7.134;2022-08-21T14:55:57;8.38;;;2.05;;
20067;SDS011;10194;50.824;7.134;2022-08-21T14:58:32;4.25;;;1.63;;
20067;SDS011;10194;50.824;7.134;2022-08-21T15:01:04;3.40;;;1.55;;
20067;SDS011;10194;50.824;7.134;2022-08-21T15:03:35;5.68;;;2.00;;
20067;SDS011;10194;50.824;7.134;2022-08-21T15:06:02;6.90;;;1.80;;
20067;SDS011;10194;50.824;7.134;2022-08-21T15:08:30;4.15;;;1.88;;
20067;SDS011;10194;50.824;7.134;2022-08-21T15:10:57;3.83;;;2.05;;
20067;SDS011;10194;50.824;7.134;2022-08-21T15:13:24;4.50;;;1.98;;
20067;SDS011;10194;50.824;7.134;2022-08-21T15:15:50;4.32;;;1.95;;
20067;SDS011;10194;50.824;7.134;2022-08-21T15:18:18;5.95;;;2.10;;
20067;SDS011;10194;50.824;7.134;2022-08-21T15:20:45;6.43;;;2.00;;
20067;SDS011;10194;50.824;7.134;2022-08-21T15:23:11;3.20;;;1.90;;
20067;SDS011;10194;50.824;7.134;2022-08-21T15:25:39;5.43;;;2.40;;
20067;SDS011;10194;50.824;7.134;2022-08-21T15:28:08;4.88;;;1.92;;
20067;SDS011;10194;50.824;7.134;2022-08-21T15:30:34;2.88;;;2.30;;
20067;SDS011;10194;50.824;7.134;2022-08-21T15:33:02;5.07;;;2.90;;
20067;SDS011;10194;50.824;7.134;2022-08-21T15:35:29;5.70;;;2.17;;
20067;SDS011;10194;50.824;7.134;2022-08-21T15:37:58;4.03;;;2.08;;
20067;SDS011;10194;50.824;7.134;2022-08-21T15:40:24;5.38;;;2.20;;
20067;SDS011;10194;50.824;7.134;2022-08-21T15:42:51;5.65;;;1.95;;
20067;SDS011;10194;50.824;7.134;2022-08-21T15:45:22;5.05;;;2.25;;
20067;SDS011;10194;50.824;7.134;2022-08-21T15:47:48;4.47;;;1.67;;
20067;SDS011;10194;50.824;7.134;2022-08-21T15:50:15;5.65;;;1.92;;
20067;SDS011;10194;50.824;7.134;2022-08-21T15:52:41;4.15;;;1.52;;
20067;SDS011;10194;50.824;7.134;2022-08-21T15:55:07;2.22;;;1.48;;
20067;SDS011;10194;50.824;7.134;2022-08-21T15:57:35;3.72;;;1.65;;
20067;SDS011;10194;50.824;7.134;2022-08-21T16:00:12;2.45;;;1.50;;
20067;SDS011;10194;50.824;7.134;2022-08-21T16:02:48;4.70;;;2.05;;
20067;SDS011;10194;50.824;7.134;2022-08-21T16:05:18;2.05;;;1.50;;
20067;SDS011;10194;50.824;7.134;2022-08-21T16:07:45;4.78;;;1.65;;
20067;SDS011;10194;50.824;7.134;2022-08-21T16:10:13;1.80;;;1.30;;
20067;SDS011;10194;50.824;7.134;2022-08-21T16:12:43;2.42;;;1.27;;
20067;SDS011;10194;50.824;7.134;2022-08-21T16:15:14;5.47;;;1.92;;
20067;SDS011;10194;50.824;7.134;2022-08-21T16:17:43;4.10;;;1.65;;
20067;SDS011;10194;50.824;7.134;2022-08-21T16:20:19;5.13;;;2.15;;
20067;SDS011;10194;50.824;7.134;2022-08-21T16:22:53;3.35;;;1.90;;
20067;SDS011;10194;50.824;7.134;2022-08-21T16:25:20;3.47;;;1.50;;
20067;SDS011;10194;50.824;7.134;2022-08-21T16:27:51;2.65;;;1.50;;
20067;SDS011;10194;50.824;7.134;2022-08-21T16:30:22;6.57;;;2.45;;